createdAt,value
2023-04-02T00:00:12.059Z,93.27
2023-04-02T00:03:15.565Z,93.02
2023-04-02T00:06:45.262Z,92.46
2023-04-02T00:09:48.351Z,91.97
2023-04-02T00:13:09.475Z,91.92
2023-04-02T00:16:23.911Z,91.81
2023-04-02T00:20:06.684Z,92.46
2023-04-02T00:23:12.847Z,91.80
2023-04-02T00:26:36.794Z,92.35
2023-04-02T00:29:54.240Z,93.09
2023-04-02T00:32:58.204Z,92.72
2023-04-02T00:36:01.147Z,92.81
2023-04-02T00:39:11.170Z,92.69
2023-04-02T00:42:13.761Z,92.48
2023-04-02T00:45:25.200Z,92.44
2023-04-02T00:48:43.776Z,92.16
2023-04-02T00:51:55.469Z,91.95
2023-04-02T00:55:05.998Z,91.39
2023-04-02T00:58:41.771Z,91.54
2023-04-02T01:01:44.961Z,91.06
2023-04-02T01:04:59.204Z,91.32
2023-04-02T01:08:17.731Z,90.94
2023-04-02T01:11:22.953Z,91.31
2023-04-02T01:14:36.753Z,90.51
2023-04-02T01:18:18.720Z,90.87
2023-04-02T01:21:33.497Z,90.87
2023-04-02T01:24:39.419Z,90.72
2023-04-02T01:27:47.879Z,90.90
2023-04-02T01:30:56.530Z,91.23
2023-04-02T01:34:01.331Z,91.38
2023-04-02T01:37:23.880Z,91.22
2023-04-02T01:40:32.141Z,91.59
2023-04-02T01:43:50.654Z,92.08
2023-04-02T01:46:53.882Z,91.47
2023-04-02T01:50:22.738Z,92.11
2023-04-02T01:53:28.193Z,92.07
2023-04-02T01:56:31.745Z,91.98
2023-04-02T01:59:35.942Z,92.12
2023-04-02T02:02:40.242Z,92.56
2023-04-02T02:05:43.905Z,91.73
2023-04-02T02:08:55.783Z,92.03
2023-04-02T02:11:59.985Z,91.34
2023-04-02T02:15:03.523Z,91.78
2023-04-02T02:18:08.124Z,91.52
2023-04-02T02:21:13.370Z,92.09
2023-04-02T02:24:27.335Z,91.94
2023-04-02T02:27:37.986Z,91.75
2023-04-02T02:30:50.823Z,91.86
2023-04-02T02:34:02.522Z,92.05
2023-04-02T02:37:15.640Z,92.95
2023-04-02T02:40:30.636Z,93.05
2023-04-02T02:43:34.348Z,93.14
2023-04-02T02:46:46.988Z,93.39
2023-04-02T02:49:53.274Z,93.71
2023-04-02T02:52:59.249Z,93.98
2023-04-02T02:56:04.097Z,95.07
2023-04-02T02:59:09.321Z,95.16
2023-04-02T03:02:12.619Z,94.97
2023-04-02T03:05:18.319Z,95.01
2023-04-02T03:08:30.593Z,94.58
2023-04-02T03:11:39.507Z,94.56
2023-04-02T03:14:55.973Z,94.94
2023-04-02T03:18:12.179Z,95.06
2023-04-02T03:21:40.172Z,95.07
2023-04-02T03:25:07.065Z,96.14
2023-04-02T03:28:17.554Z,96.12
2023-04-02T03:31:26.613Z,96.23
2023-04-02T03:34:35.800Z,96.64
2023-04-02T03:37:39.047Z,96.73
2023-04-02T03:40:46.966Z,96.92
2023-04-02T03:43:56.748Z,97.24
2023-04-02T03:47:09.365Z,97.60
2023-04-02T03:50:18.469Z,97.06
2023-04-02T03:53:26.666Z,97.50
2023-04-02T03:56:40.017Z,97.60
2023-04-02T03:59:57.954Z,97.32
2023-04-02T04:03:14.035Z,97.58
2023-04-02T04:06:24.857Z,97.51
2023-04-02T04:09:35.569Z,98.65
2023-04-02T04:12:44.406Z,98.82
2023-04-02T04:15:55.328Z,99.02
2023-04-02T04:19:08.258Z,99.41
2023-04-02T04:22:30.651Z,99.33
2023-04-02T04:25:35.215Z,99.26
2023-04-02T04:28:58.799Z,99.44
2023-04-02T04:32:27.458Z,99.90
2023-04-02T04:35:35.225Z,99.28
2023-04-02T04:38:40.962Z,99.46
2023-04-02T04:41:46.066Z,100.00
2023-04-02T04:45:24.782Z,100.00
2023-04-02T04:48:36.450Z,100.00
2023-04-02T04:51:45.373Z,100.00
2023-04-02T04:54:49.387Z,100.00
2023-04-02T04:57:58.686Z,100.00
2023-04-02T05:01:07.385Z,100.00
2023-04-02T05:04:14.994Z,99.26
2023-04-02T05:07:31.017Z,99.17
2023-04-02T05:10:43.347Z,98.81
2023-04-02T05:13:57.265Z,98.19
2023-04-02T05:17:08.054Z,97.94
2023-04-02T05:20:20.651Z,97.45
2023-04-02T05:23:27.661Z,96.89
2023-04-02T05:26:46.553Z,96.92
2023-04-02T05:30:08.360Z,96.32
2023-04-02T05:33:21.350Z,96.19
2023-04-02T05:36:26.549Z,95.96
2023-04-02T05:39:29.938Z,95.61
2023-04-02T05:42:36.047Z,95.72
2023-04-02T05:45:41.773Z,94.67
2023-04-02T05:48:45.414Z,93.87
2023-04-02T05:51:51.389Z,93.87
2023-04-02T05:55:07.244Z,92.98
2023-04-02T05:58:34.754Z,91.40
2023-04-02T06:01:56.292Z,89.94
2023-04-02T06:05:21.529Z,90.15
2023-04-02T06:08:31.670Z,88.98
2023-04-02T06:11:42.515Z,88.68
2023-04-02T06:14:47.094Z,88.76
2023-04-02T06:17:59.085Z,90.77
2023-04-02T06:21:03.414Z,87.72
2023-04-02T06:24:07.242Z,86.49
2023-04-02T06:27:14.700Z,85.84
2023-04-02T06:30:37.543Z,86.69
2023-04-02T06:33:41.021Z,88.74
2023-04-02T06:36:45.514Z,88.23
2023-04-02T06:39:48.997Z,88.42
2023-04-02T06:42:59.646Z,87.88
2023-04-02T06:46:14.425Z,87.51
2023-04-02T06:49:38.141Z,88.02
2023-04-02T06:52:51.303Z,88.80
2023-04-02T06:56:01.406Z,87.79
2023-04-02T06:59:07.566Z,87.81
2023-04-02T07:02:28.626Z,88.28
2023-04-02T07:05:32.253Z,88.37
2023-04-02T07:08:35.580Z,89.03
2023-04-02T07:11:41.362Z,89.16
2023-04-02T07:14:48.558Z,89.13
2023-04-02T07:17:52.431Z,88.36
2023-04-02T07:20:56.820Z,86.37
2023-04-02T07:24:01.289Z,84.56
2023-04-02T07:27:04.621Z,83.21
2023-04-02T07:30:08.417Z,82.38
2023-04-02T07:33:19.078Z,83.09
2023-04-02T07:36:23.780Z,82.21
2023-04-02T07:39:27.090Z,81.73
2023-04-02T07:42:29.977Z,82.08
2023-04-02T07:45:33.644Z,80.86
2023-04-02T07:48:36.772Z,80.46
2023-04-02T07:51:39.931Z,81.25
2023-04-02T07:54:44.001Z,82.21
2023-04-02T07:57:55.897Z,82.65
2023-04-02T08:00:59.996Z,81.90
2023-04-02T08:04:05.030Z,82.90
2023-04-02T08:07:08.013Z,82.96
2023-04-02T08:10:12.471Z,82.34
2023-04-02T08:13:16.318Z,83.09
2023-04-02T08:16:19.638Z,82.64
2023-04-02T08:19:22.782Z,82.93
2023-04-02T08:22:27.738Z,81.92
2023-04-02T08:25:31.021Z,81.90
2023-04-02T08:28:34.506Z,81.68
2023-04-02T08:31:38.557Z,80.66
2023-04-02T08:34:45.266Z,81.27
2023-04-02T08:37:50.254Z,81.08
2023-04-02T08:40:57.206Z,81.62
2023-04-02T08:44:32.507Z,82.04
2023-04-02T08:47:38.101Z,81.25
2023-04-02T08:50:43.318Z,81.07
2023-04-02T08:53:46.677Z,79.07
2023-04-02T08:56:59.304Z,79.33
2023-04-02T09:00:24.063Z,80.28
2023-04-02T09:03:40.523Z,79.46
2023-04-02T09:06:44.390Z,77.71
2023-04-02T09:09:50.099Z,78.68
2023-04-02T09:12:54.101Z,78.67
2023-04-02T09:16:03.046Z,78.54
2023-04-02T09:19:23.799Z,77.51
2023-04-02T09:22:28.781Z,78.38
2023-04-02T09:25:32.408Z,75.77
2023-04-02T09:28:35.345Z,77.88
2023-04-02T09:31:46.842Z,77.11
2023-04-02T09:34:49.593Z,77.20
2023-04-02T09:38:07.891Z,76.51
2023-04-02T09:41:21.129Z,74.63
2023-04-02T09:44:26.757Z,74.71
2023-04-02T09:47:32.401Z,73.84
2023-04-02T09:50:36.176Z,74.82
2023-04-02T09:53:46.496Z,74.28
2023-04-02T09:57:24.880Z,74.94
2023-04-02T10:00:32.237Z,74.61
2023-04-02T10:03:36.777Z,74.03
2023-04-02T10:06:49.617Z,71.55
2023-04-02T10:10:21.380Z,70.90
2023-04-02T10:13:35.362Z,69.95
2023-04-02T10:16:50.093Z,71.46
2023-04-02T10:19:56.701Z,70.65
2023-04-02T10:23:01.288Z,71.71
2023-04-02T10:26:20.459Z,71.57
2023-04-02T10:29:29.474Z,70.33
2023-04-02T10:32:54.823Z,70.86
2023-04-02T10:36:02.793Z,70.14
2023-04-02T10:39:24.866Z,68.29
2023-04-02T10:42:37.236Z,68.85
2023-04-02T10:45:54.561Z,69.75
2023-04-02T10:49:06.845Z,69.01
2023-04-02T10:52:28.070Z,68.49
2023-04-02T10:55:34.806Z,67.42
2023-04-02T10:58:43.066Z,66.54
2023-04-02T11:01:48.510Z,67.95
2023-04-02T11:08:01.592Z,67.76
2023-04-02T11:11:16.691Z,64.95
2023-04-02T11:14:31.224Z,66.15
2023-04-02T11:17:34.319Z,65.34
2023-04-02T11:20:59.307Z,64.69
2023-04-02T11:24:03.163Z,66.15
2023-04-02T11:27:12.523Z,66.87
2023-04-02T11:30:25.384Z,66.75
2023-04-02T11:33:38.211Z,65.67
2023-04-02T11:36:54.875Z,67.27
2023-04-02T11:39:59.818Z,66.48
2023-04-02T11:43:34.024Z,66.47
2023-04-02T11:46:42.460Z,67.28
2023-04-02T11:50:01.709Z,63.13
2023-04-02T11:53:11.777Z,65.20
2023-04-02T11:56:39.563Z,66.42
2023-04-02T11:59:49.786Z,66.25
2023-04-02T12:03:19.134Z,60.05
2023-04-02T12:06:28.680Z,57.17
2023-04-02T12:09:37.152Z,55.38
2023-04-02T12:12:40.665Z,52.26
2023-04-02T12:15:48.064Z,53.26
2023-04-02T12:18:56.108Z,55.39
2023-04-02T12:21:59.592Z,55.49
2023-04-02T12:25:06.492Z,54.50
2023-04-02T12:28:09.773Z,56.20
2023-04-02T12:31:17.889Z,56.26
2023-04-02T12:34:23.498Z,55.69
2023-04-02T12:37:29.189Z,56.38
2023-04-02T12:40:32.235Z,49.96
2023-04-02T12:43:38.412Z,46.25
2023-04-02T12:46:42.257Z,47.93
2023-04-02T12:49:45.926Z,50.92
2023-04-02T12:52:55.069Z,52.03
2023-04-02T12:55:58.571Z,53.52
2023-04-02T12:59:01.970Z,54.42
2023-04-02T13:02:22.203Z,53.49
2023-04-02T13:05:34.074Z,50.56
2023-04-02T13:08:42.698Z,47.80
2023-04-02T13:11:45.979Z,46.71
2023-04-02T13:14:53.837Z,44.24
2023-04-02T13:18:08.083Z,47.75
2023-04-02T13:21:19.150Z,51.43
2023-04-02T13:24:31.741Z,55.61
2023-04-02T13:27:35.288Z,56.93
2023-04-02T13:30:38.967Z,53.80
2023-04-02T13:33:44.343Z,46.06
2023-04-02T13:36:47.908Z,43.20
2023-04-02T13:39:51.164Z,44.49
2023-04-02T13:42:54.274Z,49.10
2023-04-02T13:45:58.759Z,53.42
2023-04-02T13:49:02.247Z,63.07
2023-04-02T13:52:08.166Z,68.57
2023-04-02T13:55:12.627Z,66.87
2023-04-02T13:58:16.244Z,66.36
2023-04-02T14:01:21.408Z,61.86
2023-04-02T14:04:28.789Z,63.32
2023-04-02T14:08:03.766Z,62.41
2023-04-02T14:11:17.598Z,59.74
2023-04-02T14:14:42.605Z,60.28
2023-04-02T14:18:09.829Z,60.76
2023-04-02T14:21:29.270Z,59.26
2023-04-02T14:24:35.676Z,58.54
2023-04-02T14:28:03.470Z,58.52
2023-04-02T14:31:13.391Z,57.74
2023-04-02T14:34:27.174Z,55.95
2023-04-02T14:37:50.730Z,54.12
2023-04-02T14:41:19.973Z,54.42
2023-04-02T14:44:26.741Z,54.19
2023-04-02T14:47:47.021Z,52.38
2023-04-02T14:50:55.047Z,52.07
2023-04-02T14:54:07.644Z,50.47
2023-04-02T14:57:19.281Z,45.44
2023-04-02T15:00:35.208Z,44.56
2023-04-02T15:04:14.280Z,41.39
2023-04-02T15:07:23.774Z,46.87
2023-04-02T15:10:31.211Z,48.23
2023-04-02T15:13:42.637Z,45.92
2023-04-02T15:16:53.648Z,42.77
2023-04-02T15:20:08.156Z,40.83
2023-04-02T15:23:15.489Z,42.29
2023-04-02T15:26:47.111Z,40.13
2023-04-02T15:30:04.275Z,41.32
2023-04-02T15:33:27.767Z,39.97
2023-04-02T15:36:42.245Z,38.73
2023-04-02T15:40:01.067Z,40.02
2023-04-02T15:43:20.627Z,40.49
2023-04-02T15:47:09.373Z,42.36
2023-04-02T15:50:46.088Z,40.54
2023-04-02T15:54:01.019Z,41.28
2023-04-02T15:57:30.537Z,41.81
2023-04-02T16:01:10.344Z,44.59
2023-04-02T16:04:27.331Z,42.97
2023-04-02T16:08:00.984Z,41.25
2023-04-02T16:11:11.475Z,39.71
2023-04-02T16:14:35.896Z,41.78
2023-04-02T16:17:43.187Z,43.08
2023-04-02T16:20:48.301Z,46.79
2023-04-02T16:23:52.685Z,46.31
2023-04-02T16:26:57.301Z,47.56
2023-04-02T16:30:07.867Z,46.35
2023-04-02T16:33:33.615Z,45.92
2023-04-02T16:36:39.197Z,46.65
2023-04-02T16:40:03.600Z,49.28
2023-04-02T16:43:14.075Z,47.53
2023-04-02T16:46:40.243Z,48.51
2023-04-02T16:50:04.853Z,52.07
2023-04-02T16:53:20.829Z,51.71
2023-04-02T16:56:35.855Z,52.87
2023-04-02T17:00:12.892Z,53.94
2023-04-02T17:03:29.366Z,54.17
2023-04-02T17:06:34.903Z,54.76
2023-04-02T17:09:53.419Z,55.83
2023-04-02T17:13:21.258Z,58.06
2023-04-02T17:16:37.934Z,58.93
2023-04-02T17:19:43.680Z,59.79
2023-04-02T17:22:50.349Z,61.12
2023-04-02T17:25:58.164Z,61.49
2023-04-02T17:29:08.376Z,62.51
2023-04-02T17:32:21.638Z,62.47
2023-04-02T17:35:56.997Z,63.49
2023-04-02T17:39:08.982Z,64.59
2023-04-02T17:42:13.766Z,65.43
2023-04-02T17:45:24.281Z,64.82
2023-04-02T17:49:00.807Z,65.46
2023-04-02T17:52:22.870Z,66.33
2023-04-02T17:55:41.412Z,65.88
2023-04-02T17:58:59.456Z,67.05
2023-04-02T18:02:25.563Z,66.56
2023-04-02T18:05:55.040Z,66.06
2023-04-02T18:09:17.628Z,66.73
2023-04-02T18:12:27.686Z,66.30
2023-04-02T18:15:40.419Z,67.37
2023-04-02T18:18:55.662Z,67.70
2023-04-02T18:22:21.812Z,68.52
2023-04-02T18:25:44.417Z,68.85
2023-04-02T18:28:51.272Z,69.37
2023-04-02T18:32:03.358Z,69.06
2023-04-02T18:35:19.336Z,69.60
2023-04-02T18:38:28.662Z,69.45
2023-04-02T18:41:39.463Z,69.97
2023-04-02T18:45:09.243Z,70.44
2023-04-02T18:48:34.945Z,70.67
2023-04-02T18:51:41.636Z,69.95
2023-04-02T18:55:01.124Z,69.67
2023-04-02T18:58:22.021Z,69.46
2023-04-02T19:05:25.197Z,69.91
2023-04-02T19:08:48.969Z,69.63
2023-04-02T19:11:55.612Z,71.16
2023-04-02T19:15:00.426Z,71.71
2023-04-02T19:18:04.723Z,71.16
2023-04-02T19:21:34.568Z,71.39
2023-04-02T19:25:06.085Z,70.94
2023-04-02T19:28:39.284Z,70.54
2023-04-02T19:32:12.527Z,69.89
2023-04-02T19:35:36.569Z,69.86
2023-04-02T19:38:50.471Z,69.78
2023-04-02T19:42:01.283Z,71.04
2023-04-02T19:45:22.621Z,71.39
2023-04-02T19:48:30.124Z,70.90
2023-04-02T19:51:34.230Z,71.25
2023-04-02T19:54:39.650Z,70.77
2023-04-02T19:57:47.047Z,70.75
2023-04-02T20:00:52.402Z,70.35
2023-04-02T20:03:57.435Z,70.27
2023-04-02T20:07:02.964Z,70.37
2023-04-02T20:10:08.660Z,70.91
2023-04-02T20:13:13.492Z,71.03
2023-04-02T20:16:22.812Z,71.25
2023-04-02T20:19:26.664Z,70.69
2023-04-02T20:22:30.768Z,69.43
2023-04-02T20:25:34.580Z,70.64
2023-04-02T20:28:38.937Z,69.69
2023-04-02T20:31:42.598Z,69.23
2023-04-02T20:34:47.270Z,69.03
2023-04-02T20:37:50.998Z,68.61
2023-04-02T20:40:54.999Z,69.42
2023-04-02T20:43:59.559Z,68.95
2023-04-02T20:47:02.856Z,69.61
2023-04-02T20:50:07.594Z,68.44
2023-04-02T20:53:12.219Z,68.56
2023-04-02T20:56:16.875Z,68.55
2023-04-02T20:59:20.469Z,68.17
2023-04-02T21:02:23.550Z,69.23
2023-04-02T21:05:26.701Z,68.63
2023-04-02T21:08:29.920Z,69.20
2023-04-02T21:11:33.295Z,69.55
2023-04-02T21:14:39.088Z,68.99
2023-04-02T21:17:42.325Z,69.39
2023-04-02T21:20:45.398Z,68.58
2023-04-02T21:23:54.306Z,68.22
2023-04-02T21:26:57.209Z,69.56
2023-04-02T21:30:00.487Z,69.94
2023-04-02T21:33:03.457Z,68.80
2023-04-02T21:36:34.869Z,69.62
2023-04-02T21:39:37.783Z,69.08
2023-04-02T21:42:42.114Z,69.96
2023-04-02T21:45:45.112Z,70.52
2023-04-02T21:48:48.866Z,70.69
2023-04-02T21:51:52.284Z,71.24
2023-04-02T21:54:55.675Z,71.70
2023-04-02T21:57:58.631Z,71.82
2023-04-02T22:01:02.194Z,71.98
2023-04-02T22:04:07.428Z,71.62
2023-04-02T22:07:10.380Z,70.80
2023-04-02T22:10:13.557Z,70.57
2023-04-02T22:13:16.459Z,70.76
2023-04-02T22:16:22.064Z,70.63
2023-04-02T22:19:24.946Z,70.08
2023-04-02T22:22:28.703Z,70.04
2023-04-02T22:25:31.721Z,70.94
2023-04-02T22:28:36.231Z,69.83
2023-04-02T22:31:39.289Z,70.85
2023-04-02T22:34:45.814Z,71.50
2023-04-02T22:37:48.819Z,71.94
2023-04-02T22:40:52.048Z,71.54
2023-04-02T22:43:56.358Z,72.49
2023-04-02T22:46:59.616Z,71.89
2023-04-02T22:50:02.693Z,71.04
2023-04-02T22:53:06.165Z,71.14
2023-04-02T22:56:14.323Z,70.97
2023-04-02T22:59:17.480Z,72.46
2023-04-02T23:02:20.225Z,71.12
2023-04-02T23:05:23.297Z,71.40
2023-04-02T23:08:26.139Z,71.43
2023-04-02T23:11:29.314Z,71.13
2023-04-02T23:14:33.492Z,70.75
2023-04-02T23:17:38.573Z,71.17
2023-04-02T23:20:41.553Z,71.04
2023-04-02T23:23:47.131Z,71.13
2023-04-02T23:26:51.301Z,71.02
2023-04-02T23:29:54.543Z,71.14
2023-04-02T23:32:57.553Z,70.94
2023-04-02T23:36:01.170Z,71.45
2023-04-02T23:39:10.577Z,70.91
2023-04-02T23:42:13.849Z,70.43
2023-04-02T23:45:17.672Z,71.01
2023-04-02T23:48:20.898Z,70.37
2023-04-02T23:51:25.063Z,70.35
2023-04-02T23:54:28.679Z,70.06
2023-04-02T23:57:31.658Z,70.70
